Time;durP1;ratioP1;P1;durP2;ratioP2;P2;SDS_P1;SDS_P2;PMS_P1;PMS_P2;Temp;Humidity;BMP_temperature;BMP_pressure;BME280_temperature;BME280_humidity;BME280_pressure;Samples;Min_cycle;Max_cycle;Signal;HPM_P1;HPM_P2
2021/09/07 00:01:33;;;;;;;5.07;4.30;;;22.10;99.90;;;;;;5010511;28;20382;-76
2021/09/07 00:04:01;;;;;;;5.10;4.70;;;22.10;99.90;;;;;;5000340;28;20069;-76
2021/09/07 00:06:28;;;;;;;4.88;4.38;;;22.10;99.90;;;;;;4997569;28;20060;-76
2021/09/07 00:08:55;;;;;;;4.95;4.10;;;22.10;99.90;;;;;;5005128;28;20046;-76
2021/09/07 00:11:27;;;;;;;6.78;4.22;;;22.00;99.90;;;;;;4982633;28;20125;-76
2021/09/07 00:13:54;;;;;;;5.45;4.00;;;22.00;99.90;;;;;;4993147;28;20050;-76
2021/09/07 00:16:21;;;;;;;5.43;4.38;;;22.00;99.90;;;;;;4997492;28;20457;-76
2021/09/07 00:18:48;;;;;;;6.13;4.38;;;22.00;99.90;;;;;;5002495;28;20050;-76
2021/09/07 00:21:18;;;;;;;6.88;4.50;;;22.00;99.90;;;;;;5006933;28;20053;-76
2021/09/07 00:23:48;;;;;;;4.78;3.92;;;22.00;99.90;;;;;;4988769;28;20047;-75
2021/09/07 00:26:15;;;;;;;6.22;4.22;;;22.00;99.90;;;;;;4999690;28;20518;-75
2021/09/07 00:28:43;;;;;;;4.80;4.30;;;22.00;99.90;;;;;;5002854;28;20046;-75
2021/09/07 00:31:10;;;;;;;5.45;4.22;;;22.00;99.90;;;;;;5002520;28;20054;-76
2021/09/07 00:33:39;;;;;;;4.30;3.90;;;22.00;99.90;;;;;;5012485;28;20050;-76
2021/09/07 00:36:06;;;;;;;4.32;3.58;;;22.00;99.90;;;;;;4992559;28;20064;-75
2021/09/07 00:38:35;;;;;;;7.35;3.85;;;22.00;99.90;;;;;;5008137;28;20046;-76
2021/09/07 00:41:03;;;;;;;5.18;3.75;;;22.00;99.90;;;;;;4995334;28;20116;-76
2021/09/07 00:43:30;;;;;;;4.15;3.75;;;22.00;99.90;;;;;;4991865;28;20046;-76
2021/09/07 00:45:57;;;;;;;6.75;3.80;;;22.00;99.90;;;;;;5000601;28;20057;-76
2021/09/07 00:48:27;;;;;;;4.25;3.70;;;21.90;99.90;;;;;;5007683;28;20058;-76
2021/09/07 00:50:56;;;;;;;4.22;3.55;;;21.90;99.90;;;;;;4988301;28;20038;-76
2021/09/07 00:53:23;;;;;;;5.18;3.88;;;21.90;99.90;;;;;;4999410;28;20050;-75
2021/09/07 00:55:56;;;;;;;4.53;3.85;;;21.90;99.90;;;;;;4995490;28;20501;-76
2021/09/07 00:58:30;;;;;;;4.18;3.78;;;21.90;99.90;;;;;;4990699;28;20483;-76
2021/09/07 01:00:58;;;;;;;4.13;3.50;;;21.90;99.90;;;;;;4990437;28;20133;-76
2021/09/07 01:03:31;;;;;;;3.88;3.50;;;21.90;99.90;;;;;;4991022;28;20475;-76
2021/09/07 01:05:58;;;;;;;4.25;3.45;;;21.90;99.90;;;;;;5003119;28;20046;-76
2021/09/07 01:08:26;;;;;;;5.00;3.60;;;21.90;99.90;;;;;;4999349;28;20050;-76
2021/09/07 01:10:53;;;;;;;6.03;3.95;;;21.90;99.90;;;;;;5011188;28;20128;-76
2021/09/07 01:13:20;;;;;;;6.38;4.13;;;21.90;99.90;;;;;;4999790;28;20042;-76
2021/09/07 01:15:48;;;;;;;6.78;3.63;;;21.90;99.90;;;;;;5007312;28;20089;-76
2021/09/07 01:18:15;;;;;;;5.07;3.63;;;21.90;99.90;;;;;;4996285;28;20073;-76
2021/09/07 01:20:42;;;;;;;4.95;3.50;;;21.90;99.90;;;;;;4992891;28;20053;-76
2021/09/07 01:23:09;;;;;;;5.32;3.63;;;21.90;99.90;;;;;;4990237;28;20046;-76
2021/09/07 01:25:37;;;;;;;8.73;3.60;;;21.80;99.90;;;;;;4989665;28;20464;-75
2021/09/07 01:28:07;;;;;;;4.65;3.65;;;21.90;99.90;;;;;;4987235;28;20050;-76
2021/09/07 01:30:37;;;;;;;5.13;3.72;;;21.80;99.90;;;;;;4978910;28;20082;-76
2021/09/07 01:33:04;;;;;;;3.92;3.60;;;21.80;99.90;;;;;;4990139;28;20100;-76
2021/09/07 01:35:33;;;;;;;6.50;4.00;;;21.80;99.90;;;;;;5009688;28;20096;-76
2021/09/07 01:38:02;;;;;;;3.97;3.58;;;21.80;99.90;;;;;;5003255;28;20133;-76
2021/09/07 01:40:29;;;;;;;5.68;3.80;;;21.70;99.90;;;;;;4997986;28;20415;-75
2021/09/07 01:42:58;;;;;;;4.47;3.60;;;21.70;99.90;;;;;;5000638;28;20429;-76
2021/09/07 01:45:28;;;;;;;3.97;3.67;;;21.70;99.90;;;;;;4989742;28;20059;-76
2021/09/07 01:47:59;;;;;;;6.50;3.83;;;21.70;99.90;;;;;;5005505;28;20053;-76
2021/09/07 01:50:29;;;;;;;5.35;3.80;;;21.60;99.90;;;;;;4979450;28;20058;-76
2021/09/07 01:52:56;;;;;;;4.10;3.55;;;21.60;99.90;;;;;;4990797;28;20038;-76
2021/09/07 01:55:23;;;;;;;6.05;3.63;;;21.60;99.90;;;;;;5001612;28;20138;-76
2021/09/07 01:57:52;;;;;;;;;;;21.60;99.90;;;;;;5002415;28;20046;-76
2021/09/07 02:00:21;;;;;;;5.80;3.90;;;21.60;99.90;;;;;;4995621;28;20020;-76
2021/09/07 02:02:52;;;;;;;5.07;4.03;;;21.50;99.90;;;;;;5001987;28;20137;-76
2021/09/07 02:05:19;;;;;;;5.70;3.83;;;21.50;99.90;;;;;;4979712;28;20470;-76
2021/09/07 02:07:46;;;;;;;4.70;4.10;;;21.50;99.90;;;;;;4989717;28;20053;-76
2021/09/07 02:10:13;;;;;;;3.72;3.40;;;21.50;99.90;;;;;;5000045;28;20058;-76
2021/09/07 02:12:43;;;;;;;4.45;3.97;;;21.50;99.90;;;;;;5010802;28;20096;-76
2021/09/07 02:15:11;;;;;;;5.97;3.50;;;21.50;99.90;;;;;;5001783;28;20096;-76
2021/09/07 02:17:38;;;;;;;7.70;3.90;;;21.50;99.90;;;;;;5001458;28;20650;-75
2021/09/07 02:20:07;;;;;;;5.78;3.85;;;21.50;99.90;;;;;;4997484;28;20042;-76
2021/09/07 02:22:36;;;;;;;4.80;3.70;;;21.50;99.90;;;;;;4992230;28;20041;-76
2021/09/07 02:25:04;;;;;;;5.85;3.88;;;21.50;99.90;;;;;;4997836;28;20046;-75
2021/09/07 02:27:31;;;;;;;6.37;3.60;;;21.40;99.90;;;;;;4997833;28;20495;-75
2021/09/07 02:29:58;;;;;;;5.45;3.90;;;21.40;99.90;;;;;;5001604;28;20297;-75
2021/09/07 02:32:25;;;;;;;5.22;3.67;;;21.40;99.90;;;;;;5005811;28;20553;-76
2021/09/07 02:34:53;;;;;;;5.43;3.58;;;21.40;99.90;;;;;;5001932;28;20045;-75
2021/09/07 02:37:22;;;;;;;4.20;3.80;;;21.40;99.90;;;;;;4997749;28;20054;-75
2021/09/07 02:39:49;;;;;;;4.03;3.67;;;21.40;99.90;;;;;;4999894;28;20391;-76
2021/09/07 02:42:16;;;;;;;8.40;3.60;;;21.40;99.90;;;;;;5004484;28;20046;-75
2021/09/07 02:44:43;;;;;;;4.45;3.55;;;21.40;99.90;;;;;;4978146;28;20427;-76
2021/09/07 02:47:11;;;;;;;7.50;4.55;;;21.40;99.90;;;;;;4997753;28;20526;-76
2021/09/07 02:49:38;;;;;;;4.35;3.70;;;21.30;99.90;;;;;;4999875;28;20053;-75
2021/09/07 02:52:06;;;;;;;3.83;3.53;;;21.30;99.90;;;;;;4989043;28;20050;-76
2021/09/07 02:54:33;;;;;;;5.47;4.20;;;21.30;99.90;;;;;;5002343;28;20050;-76
2021/09/07 02:57:00;;;;;;;5.50;3.50;;;21.30;99.90;;;;;;5010230;28;20045;-76
2021/09/07 02:59:27;;;;;;;4.50;3.63;;;21.30;99.90;;;;;;4997432;28;20042;-75
2021/09/07 03:01:54;;;;;;;4.88;3.55;;;21.30;99.90;;;;;;5009989;28;20050;-75
2021/09/07 03:04:21;;;;;;;4.20;3.78;;;21.20;99.90;;;;;;5005024;28;20289;-75
2021/09/07 03:06:49;;;;;;;5.38;4.25;;;21.20;99.90;;;;;;4997511;28;20145;-75
2021/09/07 03:09:16;;;;;;;4.25;3.85;;;21.20;99.90;;;;;;4995102;28;20038;-75
2021/09/07 03:11:43;;;;;;;5.28;3.55;;;21.20;99.90;;;;;;4999407;28;20390;-75
2021/09/07 03:14:10;;;;;;;4.45;3.70;;;21.10;99.90;;;;;;5000146;28;20390;-76
2021/09/07 03:16:40;;;;;;;4.35;3.60;;;21.10;99.90;;;;;;5009486;28;20045;-75
2021/09/07 03:19:06;;;;;;;6.93;4.18;;;21.10;99.90;;;;;;5000983;28;20482;-76
2021/09/07 03:21:34;;;;;;;3.88;3.55;;;21.10;99.90;;;;;;5006326;28;20054;-76
2021/09/07 03:24:04;;;;;;;5.53;3.63;;;21.00;99.90;;;;;;5013966;28;20065;-76
2021/09/07 03:26:31;;;;;;;7.93;3.92;;;21.00;99.90;;;;;;5000783;28;20050;-76
2021/09/07 03:28:58;;;;;;;4.25;3.85;;;21.00;99.90;;;;;;4998294;28;20045;-76
2021/09/07 03:31:25;;;;;;;5.10;3.70;;;21.00;99.90;;;;;;4994022;28;20050;-75
2021/09/07 03:33:53;;;;;;;4.20;3.80;;;20.90;99.90;;;;;;5008940;28;20348;-76
2021/09/07 03:36:20;;;;;;;5.32;3.60;;;20.90;99.90;;;;;;5008499;28;20497;-76
2021/09/07 03:38:47;;;;;;;5.80;4.05;;;20.90;99.90;;;;;;5009283;28;20069;-75
2021/09/07 03:41:14;;;;;;;3.88;3.47;;;20.90;99.90;;;;;;5010125;28;20128;-76
2021/09/07 03:43:41;;;;;;;4.13;3.72;;;20.90;99.90;;;;;;5011784;28;20053;-76
2021/09/07 03:46:08;;;;;;;5.10;3.80;;;20.80;99.90;;;;;;4991155;28;20359;-76
2021/09/07 03:48:36;;;;;;;3.97;3.58;;;20.80;99.90;;;;;;5006033;28;20054;-76
2021/09/07 03:51:06;;;;;;;4.32;3.90;;;20.80;99.90;;;;;;5013359;28;20496;-76
2021/09/07 03:53:36;;;;;;;4.22;3.83;;;20.80;99.90;;;;;;5012025;28;20049;-75
2021/09/07 03:56:04;;;;;;;5.10;3.75;;;20.80;99.90;;;;;;4995978;28;20056;-75
2021/09/07 03:58:31;;;;;;;4.75;3.92;;;20.80;99.90;;;;;;5008832;28;20493;-75
2021/09/07 04:01:00;;;;;;;6.22;3.50;;;20.80;99.90;;;;;;4991019;28;20053;-75
2021/09/07 04:03:36;;;;;;;5.47;3.90;;;20.80;99.90;;;;;;5004372;28;20132;-76
2021/09/07 04:06:04;;;;;;;6.18;3.92;;;20.70;99.90;;;;;;5005134;28;20498;-76
2021/09/07 04:08:31;;;;;;;3.58;3.28;;;20.70;99.90;;;;;;4989014;28;20061;-75
2021/09/07 04:10:58;;;;;;;4.00;3.65;;;20.70;99.90;;;;;;4992942;28;20043;-75
2021/09/07 04:13:25;;;;;;;4.97;3.88;;;20.70;99.90;;;;;;4984368;28;20050;-75
2021/09/07 04:15:52;;;;;;;4.43;3.78;;;20.70;99.90;;;;;;4997201;28;20399;-76
2021/09/07 04:18:21;;;;;;;4.40;3.80;;;20.70;99.90;;;;;;5007274;28;20050;-75
2021/09/07 04:20:49;;;;;;;7.10;3.75;;;20.70;99.90;;;;;;4982685;28;20061;-75
2021/09/07 04:23:19;;;;;;;4.35;3.88;;;20.70;99.90;;;;;;4991552;28;20042;-77
2021/09/07 04:25:48;;;;;;;4.38;3.97;;;20.70;99.90;;;;;;4993191;28;20146;-77
2021/09/07 04:28:16;;;;;;;4.45;3.63;;;20.70;99.90;;;;;;4979404;28;20483;-76
2021/09/07 04:30:45;;;;;;;4.20;3.50;;;20.60;99.90;;;;;;4994531;28;20057;-74
2021/09/07 04:33:15;;;;;;;4.60;3.42;;;20.60;99.90;;;;;;5004370;28;20075;-77
2021/09/07 04:35:42;;;;;;;4.35;3.85;;;20.60;99.90;;;;;;5008229;28;20054;-77
2021/09/07 04:38:11;;;;;;;6.00;4.05;;;20.60;99.90;;;;;;4993243;28;20513;-77
2021/09/07 04:40:42;;;;;;;5.75;4.22;;;20.60;99.90;;;;;;4971404;28;20046;-76
2021/09/07 04:43:09;;;;;;;7.30;4.05;;;20.60;99.90;;;;;;4997594;28;20062;-77
2021/09/07 04:45:39;;;;;;;5.10;4.40;;;20.60;99.90;;;;;;4983380;28;20104;-77
2021/09/07 04:48:06;;;;;;;4.88;4.20;;;20.50;99.90;;;;;;4990061;28;20049;-77
2021/09/07 04:50:36;;;;;;;5.20;3.63;;;20.50;99.90;;;;;;4995194;28;20442;-77
2021/09/07 04:53:10;;;;;;;4.53;3.97;;;20.50;99.90;;;;;;4990913;28;20050;-77
2021/09/07 04:55:39;;;;;;;7.07;4.05;;;20.50;99.90;;;;;;4982297;28;20121;-77
2021/09/07 04:58:11;;;;;;;5.93;4.00;;;20.40;99.90;;;;;;4965348;28;20129;-77
2021/09/07 05:00:38;;;;;;;6.40;3.83;;;20.40;99.90;;;;;;4982095;28;20066;-77
2021/09/07 05:03:06;;;;;;;4.97;3.75;;;20.40;99.90;;;;;;4979073;28;20084;-77
2021/09/07 05:05:34;;;;;;;4.28;3.88;;;20.40;99.90;;;;;;4993197;28;20049;-77
2021/09/07 05:08:01;;;;;;;4.53;3.53;;;20.40;99.90;;;;;;5011344;28;20058;-77
2021/09/07 05:10:30;;;;;;;4.63;3.70;;;20.30;99.90;;;;;;4992232;28;20059;-77
2021/09/07 05:13:12;;;;;;;5.93;3.95;;;20.40;99.90;;;;;;4978385;28;20069;-77
2021/09/07 05:21:44;;;;;;;4.57;4.18;;;20.30;99.90;;;;;;4966561;28;20065;-77
2021/09/07 05:24:37;;;;;;;5.90;4.13;;;20.30;99.90;;;;;;4998168;28;20050;-77
2021/09/07 05:27:17;;;;;;;;;;;;;;;;;;;;;
2021/09/07 05:30:05;;;;;;;5.45;4.35;;;20.20;99.90;;;;;;4994494;28;20104;-77
2021/09/07 05:32:41;;;;;;;4.05;3.58;;;20.20;99.90;;;;;;4988381;28;20141;-76
2021/09/07 05:35:08;;;;;;;5.47;3.97;;;20.10;99.90;;;;;;4998226;28;20049;-76
2021/09/07 05:37:40;;;;;;;4.40;4.00;;;20.10;99.90;;;;;;4985886;28;20137;-77
2021/09/07 05:40:33;;;;;;;4.95;4.40;;;20.10;99.90;;;;;;4982330;28;20128;-77
2021/09/07 05:43:03;;;;;;;4.85;3.92;;;20.10;99.90;;;;;;4979852;28;20502;-77
2021/09/07 05:45:42;;;;;;;4.78;3.92;;;20.10;99.90;;;;;;4968665;28;20038;-77
2021/09/07 05:48:36;;;;;;;5.13;4.20;;;20.10;99.90;;;;;;4964436;28;20534;-77
2021/09/07 05:51:24;;;;;;;6.68;3.78;;;20.00;99.90;;;;;;4948777;28;20081;-77
2021/09/07 05:53:57;;;;;;;5.93;3.70;;;20.00;99.90;;;;;;4943214;28;20093;-77
2021/09/07 05:56:54;;;;;;;6.13;4.20;;;20.00;99.90;;;;;;4936501;28;20054;-77
2021/09/07 05:59:28;;;;;;;6.55;3.90;;;20.00;99.90;;;;;;4951636;28;20391;-75
2021/09/07 06:02:03;;;;;;;5.55;3.80;;;20.00;99.90;;;;;;4943529;28;20129;-77
2021/09/07 06:04:32;;;;;;;4.72;4.20;;;20.00;99.90;;;;;;4960100;28;20141;-76
2021/09/07 06:06:59;;;;;;;5.85;4.05;;;20.00;99.90;;;;;;4989261;28;20606;-77
2021/09/07 06:09:29;;;;;;;5.15;4.00;;;20.00;99.90;;;;;;4998345;28;20367;-76
2021/09/07 06:13:06;;;;;;;5.78;3.88;;;20.00;99.90;;;;;;4983350;28;20061;-78
2021/09/07 06:22:25;;;;;;;4.97;3.90;;;20.20;99.90;;;;;;4949573;28;20070;-75
2021/09/07 06:24:52;;;;;;;5.70;3.70;;;20.20;99.90;;;;;;4964282;28;20097;-75
2021/09/07 06:27:19;;;;;;;4.80;4.05;;;20.30;99.90;;;;;;4963697;28;20042;-75
2021/09/07 06:29:46;;;;;;;6.00;4.18;;;20.30;99.90;;;;;;4964334;28;20055;-76
2021/09/07 06:32:16;;;;;;;6.45;3.95;;;20.40;99.90;;;;;;4965864;28;20094;-75
2021/09/07 06:34:44;;;;;;;4.45;4.03;;;20.40;99.90;;;;;;4966942;28;20392;-75
2021/09/07 06:37:11;;;;;;;3.93;3.33;;;20.50;99.90;;;;;;4966486;28;20059;-76
2021/09/07 06:39:37;;;;;;;5.80;4.13;;;20.50;99.90;;;;;;4964071;28;20047;-75
2021/09/07 06:42:05;;;;;;;5.72;3.92;;;20.60;99.90;;;;;;4963252;28;20511;-75
2021/09/07 06:44:32;;;;;;;4.30;3.87;;;20.60;99.90;;;;;;4963892;28;20052;-75
2021/09/07 06:47:00;;;;;;;4.95;3.70;;;20.60;99.90;;;;;;4968268;28;20058;-75
2021/09/07 06:49:28;;;;;;;4.18;3.72;;;20.70;99.90;;;;;;4964403;28;20055;-75
2021/09/07 06:51:58;;;;;;;4.78;3.60;;;20.80;99.90;;;;;;4963696;28;20055;-75
2021/09/07 06:54:24;;;;;;;6.70;3.83;;;20.90;99.90;;;;;;4963324;28;20055;-75
2021/09/07 06:56:51;;;;;;;7.25;3.60;;;20.90;99.90;;;;;;4963936;28;20054;-75
2021/09/07 06:59:18;;;;;;;5.25;3.70;;;21.00;99.90;;;;;;4965182;28;20047;-75
2021/09/07 07:01:45;;;;;;;7.07;3.42;;;21.10;99.90;;;;;;4966730;28;20408;-75
2021/09/07 07:04:13;;;;;;;5.30;3.20;;;21.10;99.90;;;;;;4963772;28;20480;-75
2021/09/07 07:06:40;;;;;;;4.18;3.58;;;21.20;99.90;;;;;;4963717;28;20055;-75
2021/09/07 07:09:07;;;;;;;4.65;3.83;;;21.20;99.90;;;;;;4962977;28;20047;-75
2021/09/07 07:11:34;;;;;;;5.25;3.88;;;21.30;99.90;;;;;;4963965;28;20047;-75
2021/09/07 07:14:01;;;;;;;11.27;3.80;;;21.30;99.90;;;;;;4967797;28;20484;-75
2021/09/07 07:16:28;;;;;;;5.97;3.65;;;21.40;99.90;;;;;;4964363;28;20476;-75
2021/09/07 07:18:55;;;;;;;4.90;3.20;;;21.40;99.90;;;;;;4952327;28;20483;-75
2021/09/07 07:21:22;;;;;;;4.80;3.65;;;21.50;99.90;;;;;;4962577;28;20051;-75
2021/09/07 07:23:49;;;;;;;5.55;3.85;;;21.60;99.90;;;;;;4947852;28;20126;-75
2021/09/07 07:26:16;;;;;;;6.70;4.05;;;21.60;99.90;;;;;;4964944;28;20051;-75
2021/09/07 07:28:44;;;;;;;6.57;3.75;;;21.70;99.90;;;;;;4966340;28;20059;-75
2021/09/07 07:31:10;;;;;;;7.28;3.80;;;21.80;99.90;;;;;;4960027;28;20059;-75
2021/09/07 07:33:37;;;;;;;4.93;3.55;;;21.90;99.90;;;;;;4961469;28;20055;-75
2021/09/07 07:36:04;;;;;;;5.05;3.80;;;22.00;99.90;;;;;;4962927;28;20051;-75
2021/09/07 07:38:31;;;;;;;6.65;4.35;;;22.10;99.90;;;;;;4963598;28;20056;-75
2021/09/07 07:41:01;;;;;;;7.63;3.97;;;22.20;99.90;;;;;;4967995;28;20043;-75
2021/09/07 07:43:30;;;;;;;8.07;4.30;;;22.40;99.90;;;;;;4967856;28;20103;-75
2021/09/07 07:45:57;;;;;;;6.88;3.95;;;22.50;99.90;;;;;;4963386;28;20047;-75
2021/09/07 07:48:24;;;;;;;7.68;3.95;;;22.70;99.90;;;;;;4962781;28;20058;-75
2021/09/07 07:50:51;;;;;;;5.70;3.75;;;22.80;99.90;;;;;;4963430;28;20055;-75
2021/09/07 07:53:18;;;;;;;5.38;4.03;;;23.00;99.90;;;;;;4964851;28;20063;-75
2021/09/07 07:55:44;;;;;;;6.53;3.65;;;23.10;99.90;;;;;;4966209;28;20391;-75
2021/09/07 07:58:23;;;;;;;5.78;3.60;;;23.20;99.90;;;;;;4961709;28;20051;-75
2021/09/07 08:00:50;;;;;;;7.43;4.18;;;23.30;99.90;;;;;;4963096;28;20051;-75
2021/09/07 08:03:18;;;;;;;6.40;3.88;;;23.30;99.90;;;;;;4965635;28;20043;-75
2021/09/07 08:05:45;;;;;;;5.70;3.67;;;23.40;99.90;;;;;;4966833;28;20050;-75
2021/09/07 08:08:13;;;;;;;5.38;3.63;;;23.40;99.90;;;;;;4968351;28;20058;-76
2021/09/07 08:10:40;;;;;;;5.65;4.03;;;23.40;99.90;;;;;;4969136;28;20160;-75
2021/09/07 08:13:12;;;;;;;10.52;3.55;;;23.50;99.90;;;;;;4968691;28;20492;-74
2021/09/07 08:15:39;;;;;;;5.03;3.67;;;23.50;99.90;;;;;;4966686;28;20055;-75
2021/09/07 08:18:06;;;;;;;6.65;3.80;;;23.50;99.90;;;;;;4966099;28;20046;-75
2021/09/07 08:20:33;;;;;;;6.22;3.42;;;23.60;99.90;;;;;;4966280;28;20102;-75
2021/09/07 08:23:01;;;;;;;7.57;3.58;;;23.60;99.90;;;;;;4954919;28;20043;-76
2021/09/07 08:25:28;;;;;;;6.23;3.50;;;23.70;99.90;;;;;;4966978;28;20062;-76
2021/09/07 08:27:55;;;;;;;5.38;3.42;;;23.70;99.90;;;;;;4970948;28;20059;-75
2021/09/07 08:30:22;;;;;;;5.40;3.22;;;23.70;99.90;;;;;;4965508;28;20135;-75
2021/09/07 08:32:49;;;;;;;6.07;3.70;;;23.80;99.90;;;;;;4950484;28;20051;-75
2021/09/07 08:35:16;;;;;;;4.32;3.78;;;23.90;99.90;;;;;;4968046;28;20043;-75
2021/09/07 08:37:43;;;;;;;8.00;3.58;;;23.90;99.90;;;;;;4968831;28;20131;-76
2021/09/07 08:40:11;;;;;;;4.40;3.60;;;24.00;99.90;;;;;;4968691;28;20052;-76
2021/09/07 08:42:39;;;;;;;4.05;3.30;;;24.20;99.90;;;;;;4966117;28;20055;-75
2021/09/07 08:45:09;;;;;;;4.38;3.47;;;24.40;99.90;;;;;;4965294;28;20043;-76
2021/09/07 08:47:37;;;;;;;5.70;3.70;;;24.50;99.90;;;;;;4966184;28;20044;-76
2021/09/07 08:50:05;;;;;;;4.97;3.05;;;24.60;99.80;;;;;;4969862;28;20053;-75
2021/09/07 08:52:32;;;;;;;6.55;3.50;;;24.70;99.70;;;;;;4950881;28;20051;-76
2021/09/07 08:55:01;;;;;;;4.13;3.10;;;24.80;99.50;;;;;;4965734;28;20130;-75
2021/09/07 08:57:28;;;;;;;4.90;3.10;;;24.80;99.30;;;;;;4949353;28;20051;-76
2021/09/07 09:00:06;;;;;;;4.30;3.15;;;24.90;99.30;;;;;;4966069;28;20047;-75
2021/09/07 09:02:43;;;;;;;5.88;3.33;;;25.00;99.00;;;;;;4965233;28;20429;-75
2021/09/07 09:05:11;;;;;;;7.65;3.88;;;25.20;98.90;;;;;;4968012;28;20040;-75
2021/09/07 09:07:38;;;;;;;4.82;2.90;;;25.30;98.90;;;;;;4967589;28;20503;-75
2021/09/07 09:10:07;;;;;;;5.65;3.30;;;25.40;98.70;;;;;;4965520;28;20051;-76
2021/09/07 09:12:39;;;;;;;9.45;3.00;;;25.50;98.60;;;;;;4965471;28;20062;-75
2021/09/07 09:15:20;;;;;;;7.95;3.05;;;25.70;98.40;;;;;;4964942;28;20055;-76
2021/09/07 09:17:50;;;;;;;5.03;3.00;;;25.90;97.50;;;;;;4965574;28;20048;-75
2021/09/07 09:20:18;;;;;;;5.00;3.10;;;26.00;97.90;;;;;;4966645;28;21410;-75
2021/09/07 09:22:52;;;;;;;7.13;3.40;;;26.10;97.70;;;;;;4968402;28;20051;-75
2021/09/07 09:25:19;;;;;;;4.82;3.15;;;26.20;97.50;;;;;;4965258;28;20291;-76
2021/09/07 09:27:47;;;;;;;4.88;3.05;;;26.20;97.50;;;;;;4965278;28;20084;-75
2021/09/07 09:30:15;;;;;;;8.80;3.20;;;26.20;97.50;;;;;;4964295;28;20046;-76
2021/09/07 09:32:49;;;;;;;4.57;2.95;;;26.20;97.60;;;;;;4949237;28;20058;-75
2021/09/07 09:35:17;;;;;;;3.63;2.72;;;26.30;97.20;;;;;;4966775;28;20515;-76
2021/09/07 09:38:02;;;;;;;4.95;3.17;;;26.30;97.50;;;;;;4967807;28;20118;-76
2021/09/07 09:40:31;;;;;;;7.45;3.30;;;26.50;97.10;;;;;;4965891;28;20047;-75
2021/09/07 09:42:58;;;;;;;6.78;3.30;;;26.60;97.10;;;;;;4953181;28;20047;-76
2021/09/07 09:45:30;;;;;;;5.22;2.97;;;26.70;97.10;;;;;;4964304;28;20432;-76
2021/09/07 09:47:59;;;;;;;4.82;3.10;;;26.70;96.60;;;;;;4964983;28;20059;-76
2021/09/07 09:50:27;;;;;;;5.53;3.05;;;26.80;96.40;;;;;;4965024;28;20086;-75
2021/09/07 09:52:55;;;;;;;5.20;3.22;;;26.80;96.40;;;;;;4968926;28;20051;-76
2021/09/07 09:55:23;;;;;;;4.10;3.05;;;26.80;96.40;;;;;;4964864;28;20106;-75
2021/09/07 09:57:50;;;;;;;5.63;3.08;;;26.70;96.60;;;;;;4964705;28;20058;-75
2021/09/07 10:00:17;;;;;;;6.20;3.22;;;26.70;96.80;;;;;;4963790;28;20377;-76
2021/09/07 10:02:45;;;;;;;7.22;2.88;;;26.60;96.90;;;;;;4964849;28;20051;-76
2021/09/07 10:05:14;;;;;;;4.05;3.10;;;26.60;96.90;;;;;;4966635;28;20058;-76
2021/09/07 10:08:02;;;;;;;3.70;2.97;;;26.50;96.70;;;;;;4951299;28;20123;-76
2021/09/07 10:10:29;;;;;;;5.95;3.17;;;26.60;96.80;;;;;;4964715;28;20504;-76
2021/09/07 10:13:00;;;;;;;5.30;3.33;;;26.60;96.80;;;;;;4953004;28;20051;-76
2021/09/07 10:15:40;;;;;;;4.10;3.13;;;26.70;96.60;;;;;;4964109;28;20384;-75
2021/09/07 10:18:55;;;;;;;10.65;3.10;;;26.70;96.60;;;;;;4963652;28;20130;-76
2021/09/07 10:23:58;;;;;;;4.70;2.95;;;26.90;96.50;;;;;;4949657;28;20048;-76
2021/09/07 10:26:37;;;;;;;4.40;3.00;;;27.10;96.50;;;;;;4964625;28;20373;-75
2021/09/07 10:29:15;;;;;;;4.50;2.72;;;27.30;96.00;;;;;;4967368;28;20488;-76
2021/09/07 10:31:47;;;;;;;3.97;3.00;;;27.50;96.20;;;;;;4964936;28;20107;-76
2021/09/07 10:34:16;;;;;;;6.35;3.08;;;27.70;96.10;;;;;;4966892;28;20416;-76
2021/09/07 10:36:59;;;;;;;3.42;2.80;;;27.90;96.00;;;;;;4963810;28;20106;-76
2021/09/07 10:39:38;;;;;;;5.30;3.45;;;28.00;95.70;;;;;;4963297;28;20043;-76
2021/09/07 10:42:06;;;;;;;6.40;3.10;;;28.00;95.20;;;;;;4963645;28;20047;-76
2021/09/07 10:44:39;;;;;;;3.63;3.33;;;28.00;94.80;;;;;;4964115;28;20047;-75
2021/09/07 10:47:14;;;;;;;4.63;3.03;;;28.00;94.90;;;;;;4967009;28;20515;-76
2021/09/07 10:56:15;;;;;;;;;;;;;;;;;;;;;
2021/09/07 11:13:06;;;;;;;4.65;3.13;;;28.00;94.90;;;;;;6190916;22;20171;-76
2021/09/07 11:16:02;;;;;;;3.03;2.78;;;27.90;95.40;;;;;;6122069;23;20488;-77
2021/09/07 11:18:47;;;;;;;;;;;;;;;;;;;;;
2021/09/07 11:21:47;;;;;;;3.55;3.08;;;28.00;95.40;;;;;;6039934;23;20073;-77
2021/09/07 11:25:26;;;;;;;3.50;3.05;;;28.00;95.30;;;;;;5927658;23;20111;-77
2021/09/07 11:28:12;;;;;;;6.50;3.47;;;28.10;95.30;;;;;;5976536;23;20024;-77
2021/09/07 11:30:53;;;;;;;6.50;3.47;;;28.10;95.40;;;;;;5947569;23;20084;-77
2021/09/07 11:33:30;;;;;;;4.95;3.10;;;28.20;95.30;;;;;;5949718;23;20020;-77
2021/09/07 11:36:10;;;;;;;4.88;3.67;;;28.30;95.50;;;;;;5979710;23;20387;-77
2021/09/07 11:38:39;;;;;;;5.45;3.10;;;28.30;95.40;;;;;;5992023;23;20334;-77
2021/09/07 11:41:50;;;;;;;3.70;3.38;;;28.40;95.60;;;;;;6004722;23;20029;-77
2021/09/07 11:44:32;;;;;;;5.70;3.33;;;28.50;95.80;;;;;;6136163;23;20029;-77
2021/09/07 11:47:45;;;;;;;;;;;;;;;;;;;;;
2021/09/07 11:50:52;;;;;;;4.70;3.40;;;28.70;95.70;;;;;;6122637;23;20028;-78
2021/09/07 11:53:44;;;;;;;5.53;3.10;;;28.80;95.20;;;;;;6030125;23;20023;-78
2021/09/07 11:56:56;;;;;;;9.27;3.70;;;28.80;95.00;;;;;;5944540;23;20071;-77
2021/09/07 12:03:16;;;;;;;5.50;3.75;;;28.80;94.90;;;;;;6007187;23;20034;-76
2021/09/07 12:06:16;;;;;;;;;;;;;;;;;;;;;
2021/09/07 12:09:35;;;;;;;;;;;;;;;;;;;;;
2021/09/07 12:12:29;;;;;;;;;;;;;;;;;;;;;
2021/09/07 12:15:49;;;;;;;;;;;;;;;;;;;;;
2021/09/07 12:18:47;;;;;;;5.88;3.00;;;28.80;95.10;;;;;;6044802;23;20462;-77
2021/09/07 12:21:37;;;;;;;6.90;3.30;;;28.70;95.00;;;;;;6153560;23;20330;-76
2021/09/07 12:24:45;;;;;;;5.97;3.75;;;28.60;95.10;;;;;;6137325;23;20483;-76
2021/09/07 12:27:58;;;;;;;6.00;3.30;;;28.70;95.30;;;;;;6010354;23;20389;-76
2021/09/07 12:30:54;;;;;;;6.43;3.35;;;28.80;95.30;;;;;;6031717;23;20026;-76
2021/09/07 12:33:43;;;;;;;5.32;3.30;;;29.00;95.30;;;;;;6069538;23;20030;-77
2021/09/07 12:40:32;;;;;;;7.97;3.85;;;29.20;95.10;;;;;;5943305;23;20016;-77
2021/09/07 12:43:39;;;;;;;;;;;;;;;;;;;;;
2021/09/07 12:46:35;;;;;;;;;;;29.40;94.60;;;;;;6005318;23;20470;-77
2021/09/07 13:10:14;;;;;;;15.80;4.15;;;29.80;93.10;;;;;;5087716;27;20385;-78
2021/09/07 13:13:09;;;;;;;6.93;3.38;;;29.50;92.00;;;;;;5089106;28;20131;-76
2021/09/07 13:16:46;;;;;;;;;;;;;;;;;;;;;
2021/09/07 13:23:53;;;;;;;;;;;;;;;;;;;;;
2021/09/07 13:26:36;;;;;;;;;;;;;;;;;;;;;
2021/09/07 13:29:51;;;;;;;5.35;3.00;;;29.80;92.00;;;;;;4901074;29;20047;-78
2021/09/07 13:33:22;;;;;;;;;;;;;;;;;;;;;
2021/09/07 13:43:33;;;;;;;4.88;3.17;;;30.20;91.20;;;;;;4801259;29;20129;-78
2021/09/07 13:46:56;;;;;;;;;;;;;;;;;;;;;
2021/09/07 14:03:55;;;;;;;9.60;3.30;;;30.30;90.50;;;;;;5057386;28;20409;-76
2021/09/07 14:06:42;;;;;;;10.00;3.38;;;30.20;91.00;;;;;;5057120;28;20432;-77
2021/09/07 14:09:11;;;;;;;6.40;3.10;;;30.30;90.80;;;;;;5048304;28;20045;-77
2021/09/07 14:12:25;;;;;;;10.10;3.70;;;30.30;90.80;;;;;;4998095;28;20193;-77
2021/09/07 14:15:26;;;;;;;;;;;;;;;;;;;;;
2021/09/07 14:18:40;;;;;;;;;;;;;;;;;;;;;
2021/09/07 14:25:34;;;;;;;7.68;3.10;;;30.10;91.00;;;;;;4829912;29;20089;-77
2021/09/07 14:29:13;;;;;;;6.75;3.45;;;30.00;91.00;;;;;;4717929;29;20058;-77
2021/09/07 14:51:09;;;;;;;;;;;;;;;;;;;;;
2021/09/07 14:54:31;;;;;;;6.13;3.30;;;29.50;92.20;;;;;;5816395;24;20401;-77
2021/09/07 15:22:15;;;;;;;;;;;;;;;;;;;;;
2021/09/07 15:44:51;;;;;;;;;;;;;;;;;;;;;
2021/09/07 15:47:59;;;;;;;;;;;;;;;;;;;;;
2021/09/07 16:22:55;;;;;;;9.93;6.40;;;28.00;98.10;;;;;;5833171;24;20026;-78
2021/09/07 16:26:01;;;;;;;;;;;;;;;;;;;;;
2021/09/07 21:32:54;;;;;;;;;;;;;;;;;;;;;
2021/09/07 21:36:22;;;;;;;;;;;;;;;;;;;;;
